createdAt,value
2017-11-16T00:01:05.959Z,946.6
2017-11-16T00:02:14.136Z,946.5
2017-11-16T00:03:22.100Z,946.6
2017-11-16T00:04:30.273Z,946.6
2017-11-16T00:05:38.272Z,946.6
2017-11-16T00:06:46.360Z,946.6
2017-11-16T00:07:54.500Z,946.6
2017-11-16T00:09:02.542Z,946.6
2017-11-16T00:10:10.628Z,946.6
2017-11-16T00:11:18.718Z,946.6
2017-11-16T00:12:26.804Z,946.6
2017-11-16T00:13:35.186Z,946.5
2017-11-16T00:14:42.992Z,946.5
2017-11-16T00:15:51.063Z,946.5
2017-11-16T00:16:59.150Z,946.4
2017-11-16T00:18:07.293Z,946.5
2017-11-16T00:19:15.378Z,946.4
2017-11-16T00:20:23.410Z,946.5
2017-11-16T00:21:31.498Z,946.5
2017-11-16T00:22:39.641Z,946.5
2017-11-16T00:23:47.669Z,946.5
2017-11-16T00:24:55.877Z,946.5
2017-11-16T00:26:03.849Z,946.4
2017-11-16T00:27:12.127Z,946.5
2017-11-16T00:28:20.216Z,946.5
2017-11-16T00:29:28.306Z,946.5
2017-11-16T00:30:36.446Z,946.5
2017-11-16T00:31:44.529Z,946.5
2017-11-16T00:32:52.557Z,946.5
2017-11-16T00:34:00.708Z,946.5
2017-11-16T00:35:08.737Z,946.6
2017-11-16T00:36:17.004Z,946.6
2017-11-16T00:37:24.909Z,946.6
2017-11-16T00:38:32.995Z,946.6
2017-11-16T00:39:41.082Z,946.6
2017-11-16T00:40:49.167Z,946.6
2017-11-16T00:41:57.308Z,946.6
2017-11-16T00:43:05.341Z,946.6
2017-11-16T00:44:13.439Z,946.6
2017-11-16T00:45:21.584Z,946.6
2017-11-16T00:46:29.610Z,946.6
2017-11-16T00:47:37.808Z,946.6
2017-11-16T00:48:45.776Z,946.6
2017-11-16T00:49:54.088Z,946.6
2017-11-16T00:51:02.036Z,946.6
2017-11-16T00:52:10.130Z,946.6
2017-11-16T00:53:18.268Z,946.6
2017-11-16T00:54:26.360Z,946.6
2017-11-16T00:55:35.424Z,946.5
2017-11-16T00:56:43.509Z,946.5
2017-11-16T00:57:51.599Z,946.5
2017-11-16T00:58:59.813Z,946.5
2017-11-16T01:00:07.782Z,946.5
2017-11-16T01:01:15.883Z,946.5
2017-11-16T01:02:23.977Z,946.5
2017-11-16T01:03:32.058Z,946.5
2017-11-16T01:04:40.209Z,946.6
2017-11-16T01:05:48.288Z,946.5
2017-11-16T01:06:56.318Z,946.5
2017-11-16T01:08:04.494Z,946.6
2017-11-16T01:09:12.498Z,946.5
2017-11-16T01:10:20.696Z,946.5
2017-11-16T01:11:28.661Z,946.5
2017-11-16T01:12:36.760Z,946.5
2017-11-16T01:13:44.848Z,946.5
2017-11-16T01:14:52.933Z,946.5
2017-11-16T01:16:01.074Z,946.5
2017-11-16T01:17:09.105Z,946.5
2017-11-16T01:18:17.191Z,946.5
2017-11-16T01:19:25.276Z,946.5
2017-11-16T01:20:33.361Z,946.4
2017-11-16T01:21:41.759Z,946.4
2017-11-16T01:22:49.535Z,946.4
2017-11-16T01:23:57.622Z,946.4
2017-11-16T01:25:05.708Z,946.4
2017-11-16T01:26:13.794Z,946.4
2017-11-16T01:27:21.936Z,946.4
2017-11-16T01:28:29.971Z,946.4
2017-11-16T01:29:38.063Z,946.4
2017-11-16T01:30:46.140Z,946.4
2017-11-16T01:31:54.226Z,946.4
2017-11-16T01:33:02.369Z,946.4
2017-11-16T01:34:10.408Z,946.3
2017-11-16T01:35:18.497Z,946.3
2017-11-16T01:36:26.589Z,946.3
2017-11-16T01:37:34.796Z,946.3
2017-11-16T01:38:42.884Z,946.3
2017-11-16T01:39:50.852Z,946.3
2017-11-16T01:40:58.936Z,946.4
2017-11-16T01:42:07.019Z,946.3
2017-11-16T01:43:15.112Z,946.3
2017-11-16T01:44:23.250Z,946.3
2017-11-16T01:45:31.320Z,946.3
2017-11-16T01:46:39.392Z,946.3
2017-11-16T01:47:47.472Z,946.4
2017-11-16T01:48:55.556Z,946.4
2017-11-16T01:50:03.701Z,946.4
2017-11-16T01:51:11.730Z,946.4
2017-11-16T01:52:19.817Z,946.4
2017-11-16T01:53:28.026Z,946.4
2017-11-16T01:54:36.103Z,946.3
2017-11-16T01:55:44.199Z,946.3
2017-11-16T01:56:52.163Z,946.3
2017-11-16T01:58:00.249Z,946.3
2017-11-16T01:59:08.334Z,946.3
2017-11-16T02:00:16.419Z,946.3
2017-11-16T02:01:24.565Z,946.3
2017-11-16T02:02:32.595Z,946.3
2017-11-16T02:03:40.809Z,946.3
2017-11-16T02:04:48.769Z,946.3
2017-11-16T02:05:56.855Z,946.4
2017-11-16T02:07:04.997Z,946.4
2017-11-16T02:08:13.154Z,946.3
2017-11-16T02:09:21.232Z,946.3
2017-11-16T02:10:29.207Z,946.3
2017-11-16T02:11:37.297Z,946.3
2017-11-16T02:12:45.625Z,946.3
2017-11-16T02:13:53.467Z,946.3
2017-11-16T02:15:01.556Z,946.3
2017-11-16T02:16:09.638Z,946.3
2017-11-16T02:17:17.739Z,946.2
2017-11-16T02:18:25.880Z,946.3
2017-11-16T02:19:33.915Z,946.3
2017-11-16T02:20:41.999Z,946.3
2017-11-16T02:21:50.269Z,946.3
2017-11-16T02:22:58.315Z,946.3
2017-11-16T02:24:06.313Z,946.3
2017-11-16T02:25:14.461Z,946.3
2017-11-16T02:26:22.618Z,946.3
2017-11-16T02:27:30.516Z,946.2
2017-11-16T02:28:38.602Z,946.2
2017-11-16T02:29:46.753Z,946.2
2017-11-16T02:30:54.964Z,946.2
2017-11-16T02:32:02.882Z,946.2
2017-11-16T02:33:10.973Z,946.1
2017-11-16T02:34:19.065Z,946.1
2017-11-16T02:35:27.375Z,946.1
2017-11-16T02:36:35.239Z,946.1
2017-11-16T02:37:43.324Z,946.1
2017-11-16T02:38:51.412Z,946.1
2017-11-16T02:39:59.495Z,946.1
2017-11-16T02:41:07.705Z,946.1
2017-11-16T02:42:15.670Z,946.1
2017-11-16T02:43:23.759Z,946.2
2017-11-16T02:44:32.023Z,946.2
2017-11-16T02:45:40.055Z,946.2
2017-11-16T02:46:48.164Z,946.2
2017-11-16T02:47:56.133Z,946.3
2017-11-16T02:49:04.223Z,946.3
2017-11-16T02:50:12.299Z,946.3
2017-11-16T02:51:20.389Z,946.2
2017-11-16T02:52:28.539Z,946.2
2017-11-16T02:53:36.572Z,946.2
2017-11-16T02:54:44.648Z,946.2
2017-11-16T02:55:52.738Z,946.2
2017-11-16T02:57:00.876Z,946.2
2017-11-16T02:58:09.029Z,946.2
2017-11-16T02:59:16.993Z,946.2
2017-11-16T03:00:25.078Z,946.2
2017-11-16T03:01:33.177Z,946.2
2017-11-16T03:02:41.257Z,946.2
2017-11-16T03:03:49.478Z,946.2
2017-11-16T03:04:57.429Z,946.2
2017-11-16T03:06:05.510Z,946.1
2017-11-16T03:07:13.643Z,946.1
2017-11-16T03:08:21.684Z,946.1
2017-11-16T03:09:29.826Z,946.1
2017-11-16T03:10:37.853Z,946.1
2017-11-16T03:11:46.094Z,946.1
2017-11-16T03:12:54.220Z,946.1
2017-11-16T03:14:02.163Z,946.0
2017-11-16T03:15:10.327Z,946.0
2017-11-16T03:16:18.295Z,946.0
2017-11-16T03:17:26.555Z,946.0
2017-11-16T03:18:34.468Z,946.0
2017-11-16T03:19:42.553Z,946.0
2017-11-16T03:20:50.697Z,946.0
2017-11-16T03:21:58.724Z,946.0
2017-11-16T03:23:06.811Z,946.0
2017-11-16T03:24:14.901Z,946.0
2017-11-16T03:25:22.985Z,946.0
2017-11-16T03:26:31.555Z,946.0
2017-11-16T03:27:39.522Z,946.0
2017-11-16T03:28:47.666Z,946.0
2017-11-16T03:29:55.693Z,945.9
2017-11-16T03:31:03.900Z,946.0
2017-11-16T03:32:11.986Z,945.9
2017-11-16T03:33:19.951Z,945.9
2017-11-16T03:34:28.215Z,945.9
2017-11-16T03:35:36.123Z,945.9
2017-11-16T03:36:44.215Z,945.9
2017-11-16T03:37:52.355Z,945.9
2017-11-16T03:39:00.551Z,945.9
2017-11-16T03:40:08.472Z,945.9
2017-11-16T03:41:16.561Z,945.9
2017-11-16T03:42:24.644Z,945.9
2017-11-16T03:43:32.854Z,946.0
2017-11-16T03:44:40.886Z,946.0
2017-11-16T03:45:48.903Z,946.0
2017-11-16T03:46:56.989Z,946.0
2017-11-16T03:48:05.232Z,946.0
2017-11-16T03:49:13.225Z,946.0
2017-11-16T03:50:21.256Z,946.0
2017-11-16T03:51:29.340Z,946.0
2017-11-16T03:52:37.500Z,946.0
2017-11-16T03:53:45.531Z,946.0
2017-11-16T03:54:53.656Z,946.0
2017-11-16T03:56:01.689Z,946.0
2017-11-16T03:57:09.845Z,946.0
2017-11-16T03:58:17.867Z,946.0
2017-11-16T03:59:25.955Z,946.0
2017-11-16T04:00:34.158Z,946.0
2017-11-16T04:01:42.296Z,946.0
2017-11-16T04:02:50.225Z,946.0
2017-11-16T04:03:58.301Z,946.0
2017-11-16T04:05:06.383Z,946.0
2017-11-16T04:06:14.707Z,945.9
2017-11-16T04:07:22.558Z,946.0
2017-11-16T04:08:30.659Z,945.9
2017-11-16T04:09:38.747Z,945.9
2017-11-16T04:10:46.831Z,945.9
2017-11-16T04:11:55.064Z,945.9
2017-11-16T04:13:03.002Z,946.0
2017-11-16T04:14:11.102Z,945.9
2017-11-16T04:15:19.865Z,945.9
2017-11-16T04:16:27.455Z,945.9
2017-11-16T04:17:35.468Z,945.9
2017-11-16T04:18:43.437Z,945.9
2017-11-16T04:19:51.522Z,945.9
2017-11-16T04:20:59.609Z,945.9
2017-11-16T04:22:07.697Z,945.9
2017-11-16T04:23:15.904Z,945.9
2017-11-16T04:24:23.871Z,946.0
2017-11-16T04:25:32.077Z,946.0
2017-11-16T04:26:40.044Z,946.0
2017-11-16T04:27:48.130Z,945.9
2017-11-16T04:28:56.434Z,946.0
2017-11-16T04:30:04.303Z,946.0
2017-11-16T04:31:12.390Z,945.9
2017-11-16T04:32:20.533Z,945.9
2017-11-16T04:33:28.564Z,945.9
2017-11-16T04:34:36.708Z,945.9
2017-11-16T04:35:44.738Z,945.9
2017-11-16T04:36:52.822Z,945.9
2017-11-16T04:38:00.909Z,945.9
2017-11-16T04:39:08.994Z,945.9
2017-11-16T04:40:17.210Z,946.0
2017-11-16T04:41:25.167Z,946.0
2017-11-16T04:42:33.257Z,946.0
2017-11-16T04:43:41.386Z,946.0
2017-11-16T04:44:49.543Z,946.0
2017-11-16T04:45:57.683Z,946.0
2017-11-16T04:47:05.721Z,946.0
2017-11-16T04:48:13.878Z,946.0
2017-11-16T04:49:21.889Z,946.1
2017-11-16T04:50:29.977Z,946.1
2017-11-16T04:51:38.182Z,946.1
2017-11-16T04:52:46.171Z,946.1
2017-11-16T04:53:54.235Z,946.1
2017-11-16T04:55:02.321Z,946.1
2017-11-16T04:56:10.405Z,946.1
2017-11-16T04:57:18.665Z,946.0
2017-11-16T04:58:26.581Z,946.1
2017-11-16T04:59:34.663Z,946.0
2017-11-16T05:00:42.752Z,946.0
2017-11-16T05:01:50.839Z,946.0
2017-11-16T05:02:59.044Z,946.0
2017-11-16T05:04:07.070Z,946.0
2017-11-16T05:05:15.102Z,946.0
2017-11-16T05:06:23.188Z,946.0
2017-11-16T05:07:31.282Z,946.0
2017-11-16T05:08:39.500Z,946.0
2017-11-16T05:09:47.456Z,946.1
2017-11-16T05:10:55.546Z,946.1
2017-11-16T05:12:03.884Z,946.1
2017-11-16T05:13:11.716Z,946.1
2017-11-16T05:14:19.864Z,946.1
2017-11-16T05:15:27.892Z,946.0
2017-11-16T05:16:35.978Z,946.0
2017-11-16T05:17:44.063Z,946.0
2017-11-16T05:18:52.157Z,946.0
2017-11-16T05:20:00.484Z,946.0
2017-11-16T05:21:08.320Z,946.0
2017-11-16T05:22:16.407Z,946.0
2017-11-16T05:23:24.495Z,946.0
2017-11-16T05:24:32.582Z,946.0
2017-11-16T05:25:40.940Z,946.0
2017-11-16T05:26:48.989Z,945.9
2017-11-16T05:27:56.864Z,946.0
2017-11-16T05:29:04.951Z,946.0
2017-11-16T05:30:13.043Z,946.0
2017-11-16T05:31:21.244Z,946.0
2017-11-16T05:32:29.211Z,946.0
2017-11-16T05:33:37.319Z,946.0
2017-11-16T05:34:45.435Z,946.0
2017-11-16T05:35:54.234Z,946.0
2017-11-16T05:37:01.617Z,946.0
2017-11-16T05:38:09.643Z,946.1
2017-11-16T05:39:17.729Z,946.1
2017-11-16T05:40:25.825Z,946.2
2017-11-16T05:41:33.902Z,946.1
2017-11-16T05:42:42.111Z,946.1
2017-11-16T05:43:50.080Z,946.1
2017-11-16T05:44:58.686Z,946.1
2017-11-16T05:46:07.165Z,946.1
2017-11-16T05:47:14.340Z,946.1
2017-11-16T05:48:22.547Z,946.1
2017-11-16T05:49:30.508Z,946.1
2017-11-16T05:50:38.597Z,946.1
2017-11-16T05:51:46.740Z,946.1
2017-11-16T05:52:54.923Z,946.1
2017-11-16T05:54:02.921Z,946.1
2017-11-16T05:55:11.078Z,946.1
2017-11-16T05:56:19.033Z,946.1
2017-11-16T05:57:27.117Z,946.1
2017-11-16T05:58:35.205Z,946.1
2017-11-16T05:59:43.416Z,946.1
2017-11-16T06:00:51.376Z,946.1
2017-11-16T06:01:59.613Z,946.1
2017-11-16T06:03:08.099Z,946.1
2017-11-16T06:04:15.654Z,946.1
2017-11-16T06:05:24.719Z,946.1
2017-11-16T06:06:31.962Z,946.1
2017-11-16T06:07:40.284Z,946.1
2017-11-16T06:08:48.313Z,946.1
2017-11-16T06:09:56.587Z,946.1
2017-11-16T06:11:04.605Z,946.1
2017-11-16T06:12:12.595Z,946.1
2017-11-16T06:13:20.683Z,946.1
2017-11-16T06:14:28.937Z,946.1
2017-11-16T06:15:36.860Z,946.1
2017-11-16T06:16:44.995Z,946.1
2017-11-16T06:17:53.025Z,946.0
2017-11-16T06:19:01.112Z,946.0
2017-11-16T06:20:09.217Z,946.0
2017-11-16T06:21:17.282Z,946.0
2017-11-16T06:22:25.490Z,946.0
2017-11-16T06:23:34.167Z,946.0
2017-11-16T06:24:41.545Z,946.0
2017-11-16T06:25:49.626Z,946.0
2017-11-16T06:26:58.268Z,946.0
2017-11-16T06:28:05.855Z,946.0
2017-11-16T06:29:13.884Z,946.0
2017-11-16T06:30:21.993Z,946.0
2017-11-16T06:31:30.079Z,946.0
2017-11-16T06:32:38.311Z,946.0
2017-11-16T06:33:46.305Z,946.0
2017-11-16T06:34:54.335Z,946.1
2017-11-16T06:36:02.423Z,946.1
2017-11-16T06:37:10.583Z,946.1
2017-11-16T06:38:18.599Z,946.1
2017-11-16T06:39:26.735Z,946.1
2017-11-16T06:40:34.781Z,946.1
2017-11-16T06:41:42.864Z,946.1
2017-11-16T06:42:50.950Z,946.1
2017-11-16T06:43:59.035Z,946.2
2017-11-16T06:45:07.478Z,946.2
2017-11-16T06:46:15.359Z,946.2
2017-11-16T06:47:23.295Z,946.2
2017-11-16T06:48:31.382Z,946.1
2017-11-16T06:49:39.469Z,946.2
2017-11-16T06:50:47.670Z,946.1
2017-11-16T06:51:55.644Z,946.1
2017-11-16T06:53:03.724Z,946.1
2017-11-16T06:54:11.815Z,946.1
2017-11-16T06:55:19.957Z,946.1
2017-11-16T06:56:28.147Z,946.1
2017-11-16T06:57:36.071Z,946.1
2017-11-16T06:58:44.155Z,946.1
2017-11-16T06:59:52.254Z,946.1
2017-11-16T07:01:00.339Z,946.2
2017-11-16T07:02:08.545Z,946.2
2017-11-16T07:03:16.512Z,946.2
2017-11-16T07:04:24.597Z,946.3
2017-11-16T07:05:32.860Z,946.3
2017-11-16T07:06:40.767Z,946.3
2017-11-16T07:07:48.981Z,946.3
2017-11-16T07:08:56.940Z,946.4
2017-11-16T07:10:05.118Z,946.4
2017-11-16T07:11:13.172Z,946.4
2017-11-16T07:12:21.200Z,946.4
2017-11-16T07:13:29.348Z,946.5
2017-11-16T07:14:37.456Z,946.5
2017-11-16T07:15:45.457Z,946.5
2017-11-16T07:16:53.542Z,946.6
2017-11-16T07:18:01.638Z,946.6
2017-11-16T07:19:09.901Z,946.6
2017-11-16T07:20:17.810Z,946.6
2017-11-16T07:21:25.888Z,946.6
2017-11-16T07:22:33.974Z,946.6
2017-11-16T07:23:42.161Z,946.5
2017-11-16T07:24:50.266Z,946.6
2017-11-16T07:25:58.241Z,946.6
2017-11-16T07:27:06.374Z,946.6
2017-11-16T07:28:14.403Z,946.7
2017-11-16T07:29:22.640Z,946.7
2017-11-16T07:30:30.835Z,946.8
2017-11-16T07:31:38.671Z,946.7
2017-11-16T07:32:46.955Z,946.8
2017-11-16T07:33:54.841Z,946.7
2017-11-16T07:35:02.939Z,946.7
2017-11-16T07:36:11.077Z,946.7
2017-11-16T07:37:19.288Z,946.7
2017-11-16T07:38:27.235Z,946.7
2017-11-16T07:39:35.280Z,946.7
2017-11-16T07:40:43.368Z,946.7
2017-11-16T07:41:51.508Z,946.6
2017-11-16T07:42:59.632Z,946.6
2017-11-16T07:44:07.633Z,946.6
2017-11-16T07:45:15.720Z,946.6
2017-11-16T07:46:23.809Z,946.6
2017-11-16T07:47:32.073Z,946.6
2017-11-16T07:48:39.979Z,946.6
2017-11-16T07:49:48.075Z,946.6
2017-11-16T07:50:56.160Z,946.6
2017-11-16T07:52:04.273Z,946.6
2017-11-16T07:53:12.389Z,946.6
2017-11-16T07:54:20.421Z,946.7
2017-11-16T07:55:28.507Z,946.6
2017-11-16T07:56:36.590Z,946.6
2017-11-16T07:57:44.677Z,946.6
2017-11-16T07:58:52.824Z,946.6
2017-11-16T08:00:00.865Z,946.6
2017-11-16T08:01:08.964Z,946.6
2017-11-16T08:02:17.034Z,946.6
2017-11-16T08:03:25.120Z,946.7
2017-11-16T08:04:33.265Z,946.6
2017-11-16T08:05:41.402Z,946.7
2017-11-16T08:06:49.379Z,946.7
2017-11-16T08:07:57.463Z,946.7
2017-11-16T08:09:05.550Z,946.7
2017-11-16T08:10:13.757Z,946.7
2017-11-16T08:11:21.724Z,946.7
2017-11-16T08:12:29.811Z,946.7
2017-11-16T08:13:37.895Z,946.7
2017-11-16T08:14:46.180Z,946.7
2017-11-16T08:15:54.123Z,946.6
2017-11-16T08:17:02.159Z,946.7
2017-11-16T08:18:10.249Z,946.6
2017-11-16T08:19:18.446Z,946.6
2017-11-16T08:20:26.422Z,946.6
2017-11-16T08:21:34.561Z,946.7
2017-11-16T08:22:42.593Z,946.7
2017-11-16T08:23:50.683Z,946.7
2017-11-16T08:24:58.820Z,946.7
2017-11-16T08:26:06.853Z,946.7
2017-11-16T08:27:14.993Z,946.7
2017-11-16T08:28:23.138Z,946.7
2017-11-16T08:29:31.166Z,946.7
2017-11-16T08:30:39.256Z,946.7
2017-11-16T08:31:47.282Z,946.7
2017-11-16T08:32:55.511Z,946.7
2017-11-16T08:34:03.475Z,946.7
2017-11-16T08:35:11.562Z,946.7
2017-11-16T08:36:19.648Z,946.7
2017-11-16T08:37:27.735Z,946.7
2017-11-16T08:38:35.944Z,946.7
2017-11-16T08:39:43.924Z,946.7
2017-11-16T08:40:51.998Z,946.7
2017-11-16T08:42:00.079Z,946.7
2017-11-16T08:43:08.171Z,946.8
2017-11-16T08:44:16.370Z,946.7
2017-11-16T08:45:24.335Z,946.8
2017-11-16T08:46:32.478Z,946.8
2017-11-16T08:47:40.508Z,946.8
2017-11-16T08:48:49.313Z,946.8
2017-11-16T08:49:57.438Z,946.8
2017-11-16T08:51:05.500Z,946.8
2017-11-16T08:52:13.552Z,946.8
2017-11-16T08:53:21.653Z,946.8
2017-11-16T08:54:29.723Z,946.8
2017-11-16T08:55:37.929Z,946.8
2017-11-16T08:56:45.892Z,946.8
2017-11-16T08:57:53.981Z,946.8
2017-11-16T08:59:02.066Z,946.7
2017-11-16T09:00:10.153Z,946.7
2017-11-16T09:01:18.293Z,946.7
2017-11-16T09:02:26.645Z,946.8
2017-11-16T09:03:34.469Z,946.8
2017-11-16T09:04:42.495Z,946.8
2017-11-16T09:05:50.580Z,946.8
2017-11-16T09:06:58.975Z,946.8
2017-11-16T09:08:06.755Z,946.8
2017-11-16T09:09:14.841Z,946.8
2017-11-16T09:10:22.926Z,946.7
2017-11-16T09:11:31.012Z,946.8
2017-11-16T09:12:39.160Z,946.7
2017-11-16T09:13:47.182Z,946.7
2017-11-16T09:14:55.273Z,946.7
2017-11-16T09:16:03.355Z,946.8
2017-11-16T09:17:11.438Z,946.7
2017-11-16T09:18:19.583Z,946.7
2017-11-16T09:19:27.609Z,946.8
2017-11-16T09:20:35.715Z,946.8
2017-11-16T09:21:43.860Z,946.8
2017-11-16T09:22:51.886Z,946.8
2017-11-16T09:24:00.030Z,946.8
2017-11-16T09:25:08.060Z,946.8
2017-11-16T09:26:16.147Z,946.8
2017-11-16T09:27:24.232Z,946.8
2017-11-16T09:28:32.316Z,946.8
2017-11-16T09:29:40.527Z,946.9
2017-11-16T09:30:48.492Z,946.8
2017-11-16T09:31:56.573Z,946.9
2017-11-16T09:33:04.659Z,946.8
2017-11-16T09:34:12.867Z,946.8
2017-11-16T09:35:20.966Z,946.8
2017-11-16T09:36:28.916Z,946.8
2017-11-16T09:37:37.004Z,946.8
2017-11-16T09:38:45.087Z,946.9
2017-11-16T09:39:53.253Z,946.8
2017-11-16T09:41:01.316Z,946.9
2017-11-16T09:42:09.353Z,946.9
2017-11-16T09:43:17.452Z,946.8
2017-11-16T09:44:25.586Z,946.8
2017-11-16T09:45:33.623Z,946.8
2017-11-16T09:46:41.759Z,946.8
2017-11-16T09:47:49.789Z,946.8
2017-11-16T09:48:57.874Z,946.8
2017-11-16T09:50:06.019Z,946.8
2017-11-16T09:51:14.046Z,946.8
2017-11-16T09:52:22.190Z,946.8
2017-11-16T09:53:30.518Z,946.8
2017-11-16T09:54:38.595Z,946.8
2017-11-16T09:55:46.683Z,946.8
2017-11-16T09:56:54.781Z,946.9
2017-11-16T09:58:02.931Z,946.9
2017-11-16T09:59:10.959Z,946.9
2017-11-16T10:00:19.050Z,946.9
2017-11-16T10:01:27.160Z,946.9
2017-11-16T10:02:35.213Z,946.9
2017-11-16T10:03:43.355Z,946.9
2017-11-16T10:04:51.386Z,946.9
2017-11-16T10:05:59.744Z,946.9
2017-11-16T10:07:07.555Z,946.9
2017-11-16T10:08:15.640Z,946.9
2017-11-16T10:09:23.783Z,946.9
2017-11-16T10:10:32.057Z,946.9
2017-11-16T10:11:40.093Z,946.9
2017-11-16T10:12:48.176Z,946.9
2017-11-16T10:13:56.263Z,946.9
2017-11-16T10:15:04.417Z,947.0
2017-11-16T10:16:12.525Z,946.9
2017-11-16T10:17:20.517Z,946.9
2017-11-16T10:18:28.608Z,946.9
2017-11-16T10:19:36.849Z,946.9
2017-11-16T10:20:44.828Z,946.9
2017-11-16T10:21:52.980Z,946.9
2017-11-16T10:23:00.951Z,946.8
2017-11-16T10:24:09.027Z,946.8
2017-11-16T10:25:17.115Z,946.8
2017-11-16T10:26:25.263Z,946.8
2017-11-16T10:27:33.283Z,946.8
2017-11-16T10:28:41.514Z,946.7
2017-11-16T10:29:49.456Z,946.8
2017-11-16T10:30:57.546Z,946.8
2017-11-16T10:32:05.687Z,946.8
2017-11-16T10:33:13.709Z,946.8
2017-11-16T10:34:21.809Z,946.7
2017-11-16T10:35:29.885Z,946.8
2017-11-16T10:36:37.972Z,946.8
2017-11-16T10:37:46.110Z,946.7
2017-11-16T10:38:54.141Z,946.8
2017-11-16T10:40:02.226Z,946.7
2017-11-16T10:41:10.317Z,946.7
2017-11-16T10:42:18.552Z,946.7
2017-11-16T10:43:26.536Z,946.7
2017-11-16T10:44:34.566Z,946.7
2017-11-16T10:45:42.650Z,946.6
2017-11-16T10:46:50.885Z,946.6
2017-11-16T10:47:58.822Z,946.6
2017-11-16T10:49:06.963Z,946.6
2017-11-16T10:50:14.991Z,946.6
2017-11-16T10:51:23.237Z,946.5
2017-11-16T10:52:31.160Z,946.6
2017-11-16T10:53:39.302Z,946.5
2017-11-16T10:54:47.451Z,946.5
2017-11-16T10:55:55.416Z,946.5
2017-11-16T10:57:03.504Z,946.5
2017-11-16T10:58:11.585Z,946.5
2017-11-16T10:59:19.671Z,946.5
2017-11-16T11:00:27.876Z,946.5
2017-11-16T11:01:35.840Z,946.4
2017-11-16T11:02:43.934Z,946.5
2017-11-16T11:03:52.010Z,946.5
2017-11-16T11:05:00.094Z,946.5
2017-11-16T11:06:08.234Z,946.5
2017-11-16T11:07:16.418Z,946.5
2017-11-16T11:08:24.350Z,946.5
2017-11-16T11:09:32.646Z,946.5
2017-11-16T11:10:40.525Z,946.5
2017-11-16T11:11:48.665Z,946.4
2017-11-16T11:12:56.696Z,946.5
2017-11-16T11:14:04.790Z,946.5
2017-11-16T11:15:12.963Z,946.5
2017-11-16T11:16:20.961Z,946.5
2017-11-16T11:17:29.104Z,946.5
2017-11-16T11:18:37.135Z,946.5
2017-11-16T11:19:45.303Z,946.4
2017-11-16T11:20:53.300Z,946.4
2017-11-16T11:22:01.383Z,946.4
2017-11-16T11:23:09.529Z,946.4
2017-11-16T11:24:17.563Z,946.4
2017-11-16T11:25:25.766Z,946.5
2017-11-16T11:26:33.751Z,946.4
2017-11-16T11:27:41.834Z,946.4
2017-11-16T11:28:50.072Z,946.4
2017-11-16T11:29:58.140Z,946.4
2017-11-16T11:31:06.150Z,946.5
2017-11-16T11:32:14.233Z,946.4
2017-11-16T11:33:22.358Z,946.4
2017-11-16T11:34:30.459Z,946.4
2017-11-16T11:35:38.492Z,946.4
2017-11-16T11:36:46.571Z,946.5
2017-11-16T11:37:54.667Z,946.5
2017-11-16T11:39:02.753Z,946.4
2017-11-16T11:40:10.894Z,946.4
2017-11-16T11:41:18.975Z,946.5
2017-11-16T11:42:27.138Z,946.5
2017-11-16T11:43:35.092Z,946.5
2017-11-16T11:44:43.177Z,946.5
2017-11-16T11:45:51.317Z,946.5
2017-11-16T11:46:59.345Z,946.4
2017-11-16T11:48:07.521Z,946.4
2017-11-16T11:49:15.512Z,946.4
2017-11-16T11:50:23.597Z,946.4
2017-11-16T11:51:31.755Z,946.4
2017-11-16T11:52:39.796Z,946.4
2017-11-16T11:53:47.877Z,946.4
2017-11-16T11:54:55.961Z,946.4
2017-11-16T11:56:04.077Z,946.3
2017-11-16T11:57:12.186Z,946.3
2017-11-16T11:58:20.214Z,946.3
2017-11-16T11:59:28.334Z,946.3
2017-11-16T12:00:36.416Z,946.4
2017-11-16T12:01:44.498Z,946.4
2017-11-16T12:02:52.643Z,946.4
2017-11-16T12:04:00.666Z,946.4
2017-11-16T12:05:08.750Z,946.4
2017-11-16T12:06:16.835Z,946.3
2017-11-16T12:07:24.919Z,946.4
2017-11-16T12:08:33.005Z,946.3
2017-11-16T12:09:41.092Z,946.3
2017-11-16T12:10:49.183Z,946.3
2017-11-16T12:11:57.262Z,946.3
2017-11-16T12:13:05.466Z,946.3
2017-11-16T12:14:13.431Z,946.3
2017-11-16T12:15:21.520Z,946.3
2017-11-16T12:16:29.605Z,946.3
2017-11-16T12:17:37.689Z,946.3
2017-11-16T12:18:45.831Z,946.2
2017-11-16T12:19:53.938Z,946.3
2017-11-16T12:21:01.977Z,946.2
2017-11-16T12:22:10.035Z,946.2
2017-11-16T12:23:18.122Z,946.2
2017-11-16T12:24:26.429Z,946.2
2017-11-16T12:25:34.289Z,946.2
2017-11-16T12:26:42.376Z,946.2
2017-11-16T12:27:50.467Z,946.2
2017-11-16T12:28:58.659Z,946.2
2017-11-16T12:30:06.685Z,946.1
2017-11-16T12:31:14.718Z,946.2
2017-11-16T12:32:22.826Z,946.2
2017-11-16T12:33:30.885Z,946.2
2017-11-16T12:34:38.969Z,946.1
2017-11-16T12:35:47.111Z,946.1
2017-11-16T12:36:55.135Z,946.1
2017-11-16T12:38:03.221Z,946.2
2017-11-16T12:39:11.312Z,946.1
2017-11-16T12:40:19.389Z,946.1
2017-11-16T12:41:27.598Z,946.1
2017-11-16T12:42:35.555Z,946.0
2017-11-16T12:43:43.641Z,946.1
2017-11-16T12:44:51.783Z,946.1
2017-11-16T12:45:59.809Z,946.1
2017-11-16T12:47:08.013Z,946.1
2017-11-16T12:48:15.978Z,946.1
2017-11-16T12:49:24.062Z,946.1
2017-11-16T12:50:32.148Z,946.1
2017-11-16T12:51:40.230Z,946.1
2017-11-16T12:52:48.377Z,946.1
2017-11-16T12:53:56.400Z,946.2
2017-11-16T12:55:04.484Z,946.2
2017-11-16T12:56:12.569Z,946.2
2017-11-16T12:57:20.649Z,946.3
2017-11-16T12:58:28.798Z,946.3
2017-11-16T12:59:36.818Z,946.3
2017-11-16T13:00:44.969Z,946.3
2017-11-16T13:01:53.145Z,946.3
2017-11-16T13:03:01.079Z,946.3
2017-11-16T13:04:09.227Z,946.4
2017-11-16T13:05:17.253Z,946.4
2017-11-16T13:06:25.336Z,946.4
2017-11-16T13:07:33.419Z,946.4
2017-11-16T13:08:41.503Z,946.5
2017-11-16T13:09:49.642Z,946.5
2017-11-16T13:10:57.714Z,946.5
2017-11-16T13:12:05.755Z,946.5
2017-11-16T13:13:13.842Z,946.5
2017-11-16T13:14:21.923Z,946.4
2017-11-16T13:15:30.064Z,946.4
2017-11-16T13:16:38.147Z,946.5
2017-11-16T13:17:46.195Z,946.5
2017-11-16T13:18:54.272Z,946.4
2017-11-16T13:20:02.353Z,946.4
2017-11-16T13:21:10.492Z,946.4
2017-11-16T13:22:18.525Z,946.4
2017-11-16T13:23:26.607Z,946.4
2017-11-16T13:24:34.694Z,946.5
2017-11-16T13:25:42.779Z,946.5
2017-11-16T13:26:50.932Z,946.5
2017-11-16T13:27:58.954Z,946.5
2017-11-16T13:29:07.879Z,946.4
2017-11-16T13:30:16.160Z,946.4
2017-11-16T13:31:24.164Z,946.4
2017-11-16T13:32:32.305Z,946.4
2017-11-16T13:33:40.332Z,946.5
2017-11-16T13:34:48.426Z,946.5
2017-11-16T13:35:56.499Z,946.5
2017-11-16T13:37:04.581Z,946.5
2017-11-16T13:38:12.735Z,946.5
2017-11-16T13:39:20.830Z,946.5
2017-11-16T13:40:28.963Z,946.5
2017-11-16T13:41:36.928Z,946.5
2017-11-16T13:42:45.011Z,946.5
2017-11-16T13:43:53.213Z,946.5
2017-11-16T13:45:01.176Z,946.5
2017-11-16T13:46:09.263Z,946.6
2017-11-16T13:47:17.350Z,946.5
2017-11-16T13:48:25.488Z,946.5
2017-11-16T13:49:33.643Z,946.5
2017-11-16T13:50:41.607Z,946.5
2017-11-16T13:51:49.690Z,946.5
2017-11-16T13:52:57.877Z,946.5
2017-11-16T13:54:05.860Z,946.4
2017-11-16T13:55:14.000Z,946.4
2017-11-16T13:56:22.026Z,946.4
2017-11-16T13:57:30.112Z,946.4
2017-11-16T13:58:38.195Z,946.4
2017-11-16T13:59:46.275Z,946.4
2017-11-16T14:00:54.416Z,946.4
2017-11-16T14:02:02.442Z,946.4
2017-11-16T14:03:10.526Z,946.4
2017-11-16T14:04:18.673Z,946.4
2017-11-16T14:05:26.703Z,946.4
2017-11-16T14:06:34.998Z,946.4
2017-11-16T14:07:42.961Z,946.4
2017-11-16T14:08:51.005Z,946.4
2017-11-16T14:09:59.041Z,946.4
2017-11-16T14:11:07.130Z,946.4
2017-11-16T14:12:15.380Z,946.4
2017-11-16T14:13:23.291Z,946.4
2017-11-16T14:14:31.377Z,946.4
2017-11-16T14:15:39.466Z,946.4
2017-11-16T14:16:47.582Z,946.4
2017-11-16T14:17:55.748Z,946.4
2017-11-16T14:19:03.713Z,946.4
2017-11-16T14:20:11.925Z,946.4
2017-11-16T14:21:20.035Z,946.4
2017-11-16T14:22:27.964Z,946.4
2017-11-16T14:23:36.104Z,946.4
2017-11-16T14:24:44.129Z,946.4
2017-11-16T14:25:52.211Z,946.3
2017-11-16T14:27:00.316Z,946.4
2017-11-16T14:28:08.387Z,946.4
2017-11-16T14:29:16.528Z,946.3
2017-11-16T14:30:24.549Z,946.4
2017-11-16T14:31:32.631Z,946.4
2017-11-16T14:32:40.714Z,946.4
2017-11-16T14:33:48.797Z,946.4
2017-11-16T14:34:57.113Z,946.4
2017-11-16T14:36:05.089Z,946.4
2017-11-16T14:37:13.044Z,946.3